sensor_id;sensor_type;location;lat;lon;timestamp;temperature;humidity
45868;DHT22;31582;45.490;7.860;2023-05-10T00:00:40;15.70;99.90
45868;DHT22;31582;45.490;7.860;2023-05-10T00:03:06;15.60;99.90
45868;DHT22;31582;45.490;7.860;2023-05-10T00:05:33;15.60;99.90
45868;DHT22;31582;45.490;7.860;2023-05-10T00:08:00;15.60;99.90
45868;DHT22;31582;45.490;7.860;2023-05-10T00:10:27;15.60;99.90
45868;DHT22;31582;45.490;7.860;2023-05-10T00:12:54;15.50;99.90
45868;DHT22;31582;45.490;7.860;2023-05-10T00:15:21;15.50;99.90
45868;DHT22;31582;45.490;7.860;2023-05-10T00:17:48;15.50;99.90
45868;DHT22;31582;45.490;7.860;2023-05-10T00:20:15;15.50;99.90
45868;DHT22;31582;45.490;7.860;2023-05-10T00:22:42;15.50;99.90
45868;DHT22;31582;45.490;7.860;2023-05-10T00:25:09;15.50;99.90
45868;DHT22;31582;45.490;7.860;2023-05-10T00:27:37;15.50;99.90
45868;DHT22;31582;45.490;7.860;2023-05-10T00:30:04;15.50;99.90
45868;DHT22;31582;45.490;7.860;2023-05-10T00:32:31;15.50;99.90
45868;DHT22;31582;45.490;7.860;2023-05-10T00:34:58;15.50;99.90
45868;DHT22;31582;45.490;7.860;2023-05-10T00:37:25;15.50;99.90
45868;DHT22;31582;45.490;7.860;2023-05-10T00:39:51;15.50;99.90
45868;DHT22;31582;45.490;7.860;2023-05-10T00:42:18;15.40;99.90
45868;DHT22;31582;45.490;7.860;2023-05-10T00:44:45;15.40;99.90
45868;DHT22;31582;45.490;7.860;2023-05-10T00:47:13;15.40;99.90
45868;DHT22;31582;45.490;7.860;2023-05-10T00:49:41;15.40;99.90
45868;DHT22;31582;45.490;7.860;2023-05-10T00:52:08;15.40;99.90
45868;DHT22;31582;45.490;7.860;2023-05-10T00:54:36;15.30;99.90
45868;DHT22;31582;45.490;7.860;2023-05-10T00:57:03;15.30;99.90
45868;DHT22;31582;45.490;7.860;2023-05-10T00:59:30;15.30;99.90
45868;DHT22;31582;45.490;7.860;2023-05-10T01:01:58;15.20;99.90
45868;DHT22;31582;45.490;7.860;2023-05-10T01:04:24;15.20;99.90
45868;DHT22;31582;45.490;7.860;2023-05-10T01:06:55;15.20;99.90
45868;DHT22;31582;45.490;7.860;2023-05-10T01:09:22;15.20;99.90
45868;DHT22;31582;45.490;7.860;2023-05-10T01:11:49;15.20;99.90
45868;DHT22;31582;45.490;7.860;2023-05-10T01:14:18;15.20;99.90
45868;DHT22;31582;45.490;7.860;2023-05-10T01:16:47;15.20;99.90
45868;DHT22;31582;45.490;7.860;2023-05-10T01:19:28;15.20;99.90
45868;DHT22;31582;45.490;7.860;2023-05-10T01:24:53;15.10;99.90
45868;DHT22;31582;45.490;7.860;2023-05-10T01:33:39;15.00;99.90
45868;DHT22;31582;45.490;7.860;2023-05-10T01:36:17;15.00;99.90
45868;DHT22;31582;45.490;7.860;2023-05-10T01:38:53;15.10;99.90
45868;DHT22;31582;45.490;7.860;2023-05-10T01:44:35;15.10;99.90
45868;DHT22;31582;45.490;7.860;2023-05-10T01:47:17;15.10;99.90
45868;DHT22;31582;45.490;7.860;2023-05-10T01:49:51;15.10;99.90
45868;DHT22;31582;45.490;7.860;2023-05-10T01:52:25;15.10;99.90
45868;DHT22;31582;45.490;7.860;2023-05-10T01:55:00;15.20;99.90
45868;DHT22;31582;45.490;7.860;2023-05-10T01:57:35;15.10;99.90
45868;DHT22;31582;45.490;7.860;2023-05-10T02:00:03;15.10;99.90
45868;DHT22;31582;45.490;7.860;2023-05-10T02:02:35;15.10;99.90
45868;DHT22;31582;45.490;7.860;2023-05-10T02:05:07;15.10;99.90
45868;DHT22;31582;45.490;7.860;2023-05-10T02:07:36;15.10;99.90
45868;DHT22;31582;45.490;7.860;2023-05-10T02:10:05;15.00;99.90
45868;DHT22;31582;45.490;7.860;2023-05-10T02:12:42;15.00;99.90
45868;DHT22;31582;45.490;7.860;2023-05-10T02:15:12;14.90;99.90
45868;DHT22;31582;45.490;7.860;2023-05-10T02:17:40;14.90;99.90
45868;DHT22;31582;45.490;7.860;2023-05-10T02:20:09;14.90;99.90
45868;DHT22;31582;45.490;7.860;2023-05-10T02:22:37;14.90;99.90
45868;DHT22;31582;45.490;7.860;2023-05-10T02:25:07;14.90;99.90
45868;DHT22;31582;45.490;7.860;2023-05-10T02:27:36;14.80;99.90
45868;DHT22;31582;45.490;7.860;2023-05-10T02:30:05;14.80;99.90
45868;DHT22;31582;45.490;7.860;2023-05-10T02:32:33;14.80;99.90
45868;DHT22;31582;45.490;7.860;2023-05-10T02:35:02;14.80;99.90
45868;DHT22;31582;45.490;7.860;2023-05-10T02:37:30;14.80;99.90
45868;DHT22;31582;45.490;7.860;2023-05-10T02:39:59;14.80;99.90
45868;DHT22;31582;45.490;7.860;2023-05-10T02:42:27;14.70;99.90
45868;DHT22;31582;45.490;7.860;2023-05-10T02:44:59;14.80;99.90
45868;DHT22;31582;45.490;7.860;2023-05-10T02:47:27;14.70;99.90
45868;DHT22;31582;45.490;7.860;2023-05-10T02:49:55;14.70;99.90
45868;DHT22;31582;45.490;7.860;2023-05-10T02:52:25;14.70;99.90
45868;DHT22;31582;45.490;7.860;2023-05-10T02:55:01;14.70;99.90
45868;DHT22;31582;45.490;7.860;2023-05-10T02:57:32;14.70;99.90
45868;DHT22;31582;45.490;7.860;2023-05-10T03:00:01;14.70;99.90
45868;DHT22;31582;45.490;7.860;2023-05-10T03:02:30;14.70;99.90
45868;DHT22;31582;45.490;7.860;2023-05-10T03:04:57;14.60;99.90
45868;DHT22;31582;45.490;7.860;2023-05-10T03:07:25;14.60;99.90
45868;DHT22;31582;45.490;7.860;2023-05-10T03:09:52;14.50;99.90
45868;DHT22;31582;45.490;7.860;2023-05-10T03:18:28;14.50;99.90
45868;DHT22;31582;45.490;7.860;2023-05-10T03:20:59;14.40;99.90
45868;DHT22;31582;45.490;7.860;2023-05-10T03:23:41;14.40;99.90
45868;DHT22;31582;45.490;7.860;2023-05-10T03:26:09;14.40;99.90
45868;DHT22;31582;45.490;7.860;2023-05-10T03:28:41;14.40;99.90
45868;DHT22;31582;45.490;7.860;2023-05-10T03:31:08;14.40;99.90
45868;DHT22;31582;45.490;7.860;2023-05-10T03:33:35;14.40;99.90
45868;DHT22;31582;45.490;7.860;2023-05-10T03:36:02;14.40;99.90
45868;DHT22;31582;45.490;7.860;2023-05-10T03:38:29;14.40;99.90
45868;DHT22;31582;45.490;7.860;2023-05-10T03:40:57;14.40;99.90
45868;DHT22;31582;45.490;7.860;2023-05-10T03:43:23;14.30;99.90
45868;DHT22;31582;45.490;7.860;2023-05-10T03:45:50;14.40;99.90
45868;DHT22;31582;45.490;7.860;2023-05-10T03:48:17;14.30;99.90
45868;DHT22;31582;45.490;7.860;2023-05-10T03:50:44;14.30;99.90
45868;DHT22;31582;45.490;7.860;2023-05-10T03:53:11;14.30;99.90
45868;DHT22;31582;45.490;7.860;2023-05-10T03:55:38;14.30;99.90
45868;DHT22;31582;45.490;7.860;2023-05-10T03:58:05;14.20;99.90
45868;DHT22;31582;45.490;7.860;2023-05-10T04:00:32;14.20;99.90
45868;DHT22;31582;45.490;7.860;2023-05-10T04:02:59;14.20;99.90
45868;DHT22;31582;45.490;7.860;2023-05-10T04:05:26;14.20;99.90
45868;DHT22;31582;45.490;7.860;2023-05-10T04:07:53;14.10;99.90
45868;DHT22;31582;45.490;7.860;2023-05-10T04:10:20;14.10;99.90
45868;DHT22;31582;45.490;7.860;2023-05-10T04:12:47;14.10;99.90
45868;DHT22;31582;45.490;7.860;2023-05-10T04:15:14;14.10;99.90
45868;DHT22;31582;45.490;7.860;2023-05-10T04:17:41;14.10;99.90
45868;DHT22;31582;45.490;7.860;2023-05-10T04:20:09;14.20;99.90
45868;DHT22;31582;45.490;7.860;2023-05-10T04:22:36;14.20;99.90
45868;DHT22;31582;45.490;7.860;2023-05-10T04:25:03;14.20;99.90
45868;DHT22;31582;45.490;7.860;2023-05-10T04:27:30;14.20;99.90
45868;DHT22;31582;45.490;7.860;2023-05-10T04:29:57;14.20;99.90
45868;DHT22;31582;45.490;7.860;2023-05-10T04:32:24;14.20;99.90
45868;DHT22;31582;45.490;7.860;2023-05-10T04:34:51;14.20;99.90
45868;DHT22;31582;45.490;7.860;2023-05-10T04:37:18;14.20;99.90
45868;DHT22;31582;45.490;7.860;2023-05-10T04:39:45;14.20;99.90
45868;DHT22;31582;45.490;7.860;2023-05-10T04:42:11;14.20;99.90
45868;DHT22;31582;45.490;7.860;2023-05-10T04:44:38;14.20;99.90
45868;DHT22;31582;45.490;7.860;2023-05-10T04:47:05;14.20;99.90
45868;DHT22;31582;45.490;7.860;2023-05-10T04:49:32;14.20;99.90
45868;DHT22;31582;45.490;7.860;2023-05-10T04:51:59;14.20;99.90
45868;DHT22;31582;45.490;7.860;2023-05-10T04:54:26;14.20;99.90
45868;DHT22;31582;45.490;7.860;2023-05-10T04:56:53;14.20;99.90
45868;DHT22;31582;45.490;7.860;2023-05-10T04:59:19;14.20;99.90
45868;DHT22;31582;45.490;7.860;2023-05-10T05:01:46;14.20;99.90
45868;DHT22;31582;45.490;7.860;2023-05-10T05:04:15;14.20;99.90
45868;DHT22;31582;45.490;7.860;2023-05-10T05:06:42;14.20;99.90
45868;DHT22;31582;45.490;7.860;2023-05-10T05:09:09;14.20;99.90
45868;DHT22;31582;45.490;7.860;2023-05-10T05:11:36;14.20;99.90
45868;DHT22;31582;45.490;7.860;2023-05-10T05:14:03;14.20;99.90
45868;DHT22;31582;45.490;7.860;2023-05-10T05:16:31;14.30;99.90
45868;DHT22;31582;45.490;7.860;2023-05-10T05:18:59;14.30;99.90
45868;DHT22;31582;45.490;7.860;2023-05-10T05:21:27;14.30;99.90
45868;DHT22;31582;45.490;7.860;2023-05-10T05:23:54;14.30;99.90
45868;DHT22;31582;45.490;7.860;2023-05-10T05:26:23;14.30;99.90
45868;DHT22;31582;45.490;7.860;2023-05-10T05:28:50;14.30;99.90
45868;DHT22;31582;45.490;7.860;2023-05-10T05:31:20;14.30;99.90
45868;DHT22;31582;45.490;7.860;2023-05-10T05:33:47;14.40;99.90
45868;DHT22;31582;45.490;7.860;2023-05-10T05:36:14;14.40;99.90
45868;DHT22;31582;45.490;7.860;2023-05-10T05:38:41;14.40;99.90
45868;DHT22;31582;45.490;7.860;2023-05-10T05:41:08;14.40;99.90
45868;DHT22;31582;45.490;7.860;2023-05-10T05:43:35;14.40;99.90
45868;DHT22;31582;45.490;7.860;2023-05-10T05:46:04;14.40;99.90
45868;DHT22;31582;45.490;7.860;2023-05-10T05:48:31;14.40;99.90
45868;DHT22;31582;45.490;7.860;2023-05-10T05:50:58;14.40;99.90
45868;DHT22;31582;45.490;7.860;2023-05-10T05:53:25;14.40;99.90
45868;DHT22;31582;45.490;7.860;2023-05-10T05:55:56;14.40;99.90
45868;DHT22;31582;45.490;7.860;2023-05-10T05:58:24;14.40;99.90
45868;DHT22;31582;45.490;7.860;2023-05-10T06:00:52;14.50;99.90
45868;DHT22;31582;45.490;7.860;2023-05-10T06:03:19;14.50;99.90
45868;DHT22;31582;45.490;7.860;2023-05-10T06:05:47;14.50;99.90
45868;DHT22;31582;45.490;7.860;2023-05-10T06:08:14;14.50;99.90
45868;DHT22;31582;45.490;7.860;2023-05-10T06:10:41;14.60;99.90
45868;DHT22;31582;45.490;7.860;2023-05-10T06:13:08;14.60;99.90
45868;DHT22;31582;45.490;7.860;2023-05-10T06:15:35;14.60;99.90
45868;DHT22;31582;45.490;7.860;2023-05-10T06:18:02;14.60;99.90
45868;DHT22;31582;45.490;7.860;2023-05-10T06:20:29;14.60;99.90
45868;DHT22;31582;45.490;7.860;2023-05-10T06:22:58;14.60;99.90
45868;DHT22;31582;45.490;7.860;2023-05-10T06:25:25;14.60;99.90
45868;DHT22;31582;45.490;7.860;2023-05-10T06:27:52;14.70;99.90
45868;DHT22;31582;45.490;7.860;2023-05-10T06:30:24;14.70;99.90
45868;DHT22;31582;45.490;7.860;2023-05-10T06:32:54;14.70;99.90
45868;DHT22;31582;45.490;7.860;2023-05-10T06:35:21;14.70;99.90
45868;DHT22;31582;45.490;7.860;2023-05-10T06:37:49;14.60;99.90
45868;DHT22;31582;45.490;7.860;2023-05-10T06:40:16;14.70;99.90
45868;DHT22;31582;45.490;7.860;2023-05-10T06:42:43;14.70;99.90
45868;DHT22;31582;45.490;7.860;2023-05-10T06:45:12;14.70;99.90
45868;DHT22;31582;45.490;7.860;2023-05-10T06:47:39;14.70;99.90
45868;DHT22;31582;45.490;7.860;2023-05-10T06:50:10;14.70;99.90
45868;DHT22;31582;45.490;7.860;2023-05-10T06:52:40;14.70;99.90
45868;DHT22;31582;45.490;7.860;2023-05-10T06:55:07;14.70;99.90
45868;DHT22;31582;45.490;7.860;2023-05-10T06:57:35;14.70;99.90
45868;DHT22;31582;45.490;7.860;2023-05-10T07:00:03;14.70;99.90
45868;DHT22;31582;45.490;7.860;2023-05-10T07:02:32;14.70;99.90
45868;DHT22;31582;45.490;7.860;2023-05-10T07:04:59;14.70;99.90
45868;DHT22;31582;45.490;7.860;2023-05-10T07:07:29;14.70;99.90
45868;DHT22;31582;45.490;7.860;2023-05-10T07:09:56;14.70;99.90
45868;DHT22;31582;45.490;7.860;2023-05-10T07:12:24;14.60;99.90
45868;DHT22;31582;45.490;7.860;2023-05-10T07:14:52;14.60;99.90
45868;DHT22;31582;45.490;7.860;2023-05-10T07:17:18;14.60;99.90
45868;DHT22;31582;45.490;7.860;2023-05-10T07:19:46;14.70;99.90
45868;DHT22;31582;45.490;7.860;2023-05-10T07:22:12;14.70;99.90
45868;DHT22;31582;45.490;7.860;2023-05-10T07:24:40;14.70;99.90
45868;DHT22;31582;45.490;7.860;2023-05-10T07:27:07;14.80;99.90
45868;DHT22;31582;45.490;7.860;2023-05-10T07:29:34;14.90;99.90
45868;DHT22;31582;45.490;7.860;2023-05-10T07:32:01;15.00;99.90
45868;DHT22;31582;45.490;7.860;2023-05-10T07:34:28;15.20;99.90
45868;DHT22;31582;45.490;7.860;2023-05-10T07:36:58;15.30;99.90
45868;DHT22;31582;45.490;7.860;2023-05-10T07:39:26;15.40;99.90
45868;DHT22;31582;45.490;7.860;2023-05-10T07:41:54;15.50;99.90
45868;DHT22;31582;45.490;7.860;2023-05-10T07:44:21;15.50;99.90
45868;DHT22;31582;45.490;7.860;2023-05-10T07:46:48;15.60;99.90
45868;DHT22;31582;45.490;7.860;2023-05-10T07:49:15;15.60;99.90
45868;DHT22;31582;45.490;7.860;2023-05-10T07:51:42;15.70;99.90
45868;DHT22;31582;45.490;7.860;2023-05-10T07:54:09;15.70;99.90
45868;DHT22;31582;45.490;7.860;2023-05-10T07:56:36;15.80;99.90
45868;DHT22;31582;45.490;7.860;2023-05-10T07:59:03;15.80;99.90
45868;DHT22;31582;45.490;7.860;2023-05-10T08:01:33;15.90;99.90
45868;DHT22;31582;45.490;7.860;2023-05-10T08:04:00;15.90;99.90
45868;DHT22;31582;45.490;7.860;2023-05-10T08:06:28;16.00;99.90
45868;DHT22;31582;45.490;7.860;2023-05-10T08:08:56;16.10;99.90
45868;DHT22;31582;45.490;7.860;2023-05-10T08:11:23;16.30;99.90
45868;DHT22;31582;45.490;7.860;2023-05-10T08:13:51;16.50;99.90
45868;DHT22;31582;45.490;7.860;2023-05-10T08:16:18;16.70;99.90
45868;DHT22;31582;45.490;7.860;2023-05-10T08:18:46;16.90;99.90
45868;DHT22;31582;45.490;7.860;2023-05-10T08:21:14;17.00;99.90
45868;DHT22;31582;45.490;7.860;2023-05-10T08:23:41;17.20;99.90
45868;DHT22;31582;45.490;7.860;2023-05-10T08:26:10;17.30;99.90
45868;DHT22;31582;45.490;7.860;2023-05-10T08:28:37;17.40;99.00
45868;DHT22;31582;45.490;7.860;2023-05-10T08:31:04;17.40;97.70
45868;DHT22;31582;45.490;7.860;2023-05-10T08:33:32;17.30;97.60
45868;DHT22;31582;45.490;7.860;2023-05-10T08:35:58;17.40;98.00
45868;DHT22;31582;45.490;7.860;2023-05-10T08:38:25;17.50;95.70
45868;DHT22;31582;45.490;7.860;2023-05-10T08:40:54;17.70;95.60
45868;DHT22;31582;45.490;7.860;2023-05-10T08:43:29;17.80;93.70
45868;DHT22;31582;45.490;7.860;2023-05-10T08:46:00;18.00;94.50
45868;DHT22;31582;45.490;7.860;2023-05-10T08:48:29;18.10;94.30
45868;DHT22;31582;45.490;7.860;2023-05-10T08:50:58;18.20;93.10
45868;DHT22;31582;45.490;7.860;2023-05-10T08:53:27;18.40;93.90
45868;DHT22;31582;45.490;7.860;2023-05-10T08:55:55;18.60;93.40
45868;DHT22;31582;45.490;7.860;2023-05-10T08:58:22;18.70;90.40
45868;DHT22;31582;45.490;7.860;2023-05-10T09:00:49;18.70;88.60
45868;DHT22;31582;45.490;7.860;2023-05-10T09:03:19;18.60;87.40
45868;DHT22;31582;45.490;7.860;2023-05-10T09:05:46;18.50;88.40
45868;DHT22;31582;45.490;7.860;2023-05-10T09:08:14;18.40;89.40
45868;DHT22;31582;45.490;7.860;2023-05-10T09:10:45;18.20;90.50
45868;DHT22;31582;45.490;7.860;2023-05-10T09:13:17;18.10;92.90
45868;DHT22;31582;45.490;7.860;2023-05-10T09:15:45;18.00;93.20
45868;DHT22;31582;45.490;7.860;2023-05-10T09:18:12;18.00;92.70
45868;DHT22;31582;45.490;7.860;2023-05-10T09:20:40;18.00;93.10
45868;DHT22;31582;45.490;7.860;2023-05-10T09:23:07;18.00;93.40
45868;DHT22;31582;45.490;7.860;2023-05-10T09:25:35;18.00;92.20
45868;DHT22;31582;45.490;7.860;2023-05-10T09:28:02;18.10;93.60
45868;DHT22;31582;45.490;7.860;2023-05-10T09:30:32;18.30;93.00
45868;DHT22;31582;45.490;7.860;2023-05-10T09:32:59;18.50;92.50
45868;DHT22;31582;45.490;7.860;2023-05-10T09:35:30;18.70;90.60
45868;DHT22;31582;45.490;7.860;2023-05-10T09:38:00;18.70;89.50
45868;DHT22;31582;45.490;7.860;2023-05-10T09:40:28;18.80;90.00
45868;DHT22;31582;45.490;7.860;2023-05-10T09:45:30;18.90;87.50
45868;DHT22;31582;45.490;7.860;2023-05-10T09:47:58;18.80;88.90
45868;DHT22;31582;45.490;7.860;2023-05-10T09:50:26;18.80;90.40
45868;DHT22;31582;45.490;7.860;2023-05-10T09:52:55;18.90;89.70
45868;DHT22;31582;45.490;7.860;2023-05-10T09:55:38;18.80;86.20
45868;DHT22;31582;45.490;7.860;2023-05-10T09:58:06;18.80;86.30
45868;DHT22;31582;45.490;7.860;2023-05-10T10:00:40;18.70;86.90
45868;DHT22;31582;45.490;7.860;2023-05-10T10:03:16;18.50;87.10
45868;DHT22;31582;45.490;7.860;2023-05-10T10:05:44;18.20;86.90
45868;DHT22;31582;45.490;7.860;2023-05-10T10:08:11;18.10;90.00
45868;DHT22;31582;45.490;7.860;2023-05-10T10:10:39;17.90;90.10
45868;DHT22;31582;45.490;7.860;2023-05-10T10:13:09;17.80;91.40
45868;DHT22;31582;45.490;7.860;2023-05-10T10:15:36;17.70;92.50
45868;DHT22;31582;45.490;7.860;2023-05-10T10:18:03;17.50;93.50
45868;DHT22;31582;45.490;7.860;2023-05-10T10:20:31;17.40;94.60
45868;DHT22;31582;45.490;7.860;2023-05-10T10:22:58;17.40;94.40
45868;DHT22;31582;45.490;7.860;2023-05-10T10:25:25;17.30;94.80
45868;DHT22;31582;45.490;7.860;2023-05-10T10:30:41;17.40;95.50
45868;DHT22;31582;45.490;7.860;2023-05-10T10:33:33;17.40;95.00
45868;DHT22;31582;45.490;7.860;2023-05-10T10:36:03;17.40;94.00
45868;DHT22;31582;45.490;7.860;2023-05-10T10:41:37;17.50;94.30
45868;DHT22;31582;45.490;7.860;2023-05-10T10:52:25;17.50;93.80
45868;DHT22;31582;45.490;7.860;2023-05-10T10:55:19;17.60;94.10
45868;DHT22;31582;45.490;7.860;2023-05-10T10:57:53;17.70;92.20
45868;DHT22;31582;45.490;7.860;2023-05-10T11:00:36;17.80;91.70
45868;DHT22;31582;45.490;7.860;2023-05-10T11:03:05;17.80;92.10
45868;DHT22;31582;45.490;7.860;2023-05-10T11:05:43;17.80;91.90
45868;DHT22;31582;45.490;7.860;2023-05-10T11:08:19;17.90;91.40
45868;DHT22;31582;45.490;7.860;2023-05-10T11:13:40;18.10;92.50
45868;DHT22;31582;45.490;7.860;2023-05-10T11:16:20;18.20;92.40
45868;DHT22;31582;45.490;7.860;2023-05-10T11:19:07;18.30;91.20
45868;DHT22;31582;45.490;7.860;2023-05-10T11:24:29;18.20;90.00
45868;DHT22;31582;45.490;7.860;2023-05-10T11:26:56;18.10;90.00
45868;DHT22;31582;45.490;7.860;2023-05-10T11:29:23;18.00;90.80
45868;DHT22;31582;45.490;7.860;2023-05-10T11:31:53;18.00;91.60
45868;DHT22;31582;45.490;7.860;2023-05-10T11:34:30;18.10;91.90
45868;DHT22;31582;45.490;7.860;2023-05-10T11:37:00;18.10;92.10
45868;DHT22;31582;45.490;7.860;2023-05-10T11:39:29;18.00;91.70
45868;DHT22;31582;45.490;7.860;2023-05-10T11:41:56;18.10;93.20
45868;DHT22;31582;45.490;7.860;2023-05-10T11:44:31;18.10;92.60
45868;DHT22;31582;45.490;7.860;2023-05-10T11:46:59;18.20;92.60
45868;DHT22;31582;45.490;7.860;2023-05-10T11:49:26;18.20;91.80
45868;DHT22;31582;45.490;7.860;2023-05-10T11:52:06;18.20;93.10
45868;DHT22;31582;45.490;7.860;2023-05-10T11:54:34;18.30;93.20
45868;DHT22;31582;45.490;7.860;2023-05-10T11:57:01;18.20;93.90
45868;DHT22;31582;45.490;7.860;2023-05-10T11:59:28;18.00;93.70
45868;DHT22;31582;45.490;7.860;2023-05-10T12:01:55;17.90;95.20
45868;DHT22;31582;45.490;7.860;2023-05-10T12:04:22;17.80;96.90
45868;DHT22;31582;45.490;7.860;2023-05-10T12:06:49;17.90;98.00
45868;DHT22;31582;45.490;7.860;2023-05-10T12:09:16;17.90;97.00
45868;DHT22;31582;45.490;7.860;2023-05-10T12:11:57;18.00;96.30
45868;DHT22;31582;45.490;7.860;2023-05-10T12:14:24;18.00;96.10
45868;DHT22;31582;45.490;7.860;2023-05-10T12:16:51;18.00;95.00
45868;DHT22;31582;45.490;7.860;2023-05-10T12:19:18;18.00;95.50
45868;DHT22;31582;45.490;7.860;2023-05-10T12:21:47;18.00;95.70
45868;DHT22;31582;45.490;7.860;2023-05-10T12:24:14;18.10;94.80
45868;DHT22;31582;45.490;7.860;2023-05-10T12:26:45;18.00;94.30
45868;DHT22;31582;45.490;7.860;2023-05-10T12:29:16;18.00;95.10
45868;DHT22;31582;45.490;7.860;2023-05-10T12:31:53;18.00;95.50
45868;DHT22;31582;45.490;7.860;2023-05-10T12:36:53;18.20;94.10
45868;DHT22;31582;45.490;7.860;2023-05-10T12:39:20;18.30;95.30
45868;DHT22;31582;45.490;7.860;2023-05-10T12:41:47;18.40;94.50
45868;DHT22;31582;45.490;7.860;2023-05-10T12:44:14;18.50;91.20
45868;DHT22;31582;45.490;7.860;2023-05-10T12:46:41;18.50;90.60
45868;DHT22;31582;45.490;7.860;2023-05-10T12:49:08;18.50;91.00
45868;DHT22;31582;45.490;7.860;2023-05-10T12:51:35;18.60;91.10
45868;DHT22;31582;45.490;7.860;2023-05-10T12:54:03;18.70;89.70
45868;DHT22;31582;45.490;7.860;2023-05-10T12:56:30;18.80;90.00
45868;DHT22;31582;45.490;7.860;2023-05-10T12:58:57;18.90;90.30
45868;DHT22;31582;45.490;7.860;2023-05-10T13:01:23;19.10;88.70
45868;DHT22;31582;45.490;7.860;2023-05-10T13:03:51;19.40;83.40
45868;DHT22;31582;45.490;7.860;2023-05-10T13:06:17;19.50;78.60
45868;DHT22;31582;45.490;7.860;2023-05-10T13:08:44;19.70;80.50
45868;DHT22;31582;45.490;7.860;2023-05-10T13:11:11;19.80;80.70
45868;DHT22;31582;45.490;7.860;2023-05-10T13:13:43;19.80;79.70
45868;DHT22;31582;45.490;7.860;2023-05-10T13:16:09;19.90;81.00
45868;DHT22;31582;45.490;7.860;2023-05-10T13:18:36;19.90;79.80
45868;DHT22;31582;45.490;7.860;2023-05-10T13:21:03;20.10;81.20
45868;DHT22;31582;45.490;7.860;2023-05-10T13:23:31;20.40;84.70
45868;DHT22;31582;45.490;7.860;2023-05-10T13:25:58;20.80;84.70
45868;DHT22;31582;45.490;7.860;2023-05-10T13:28:25;21.20;80.70
45868;DHT22;31582;45.490;7.860;2023-05-10T13:30:52;21.60;76.60
45868;DHT22;31582;45.490;7.860;2023-05-10T13:33:19;22.10;70.00
45868;DHT22;31582;45.490;7.860;2023-05-10T13:35:46;22.20;67.60
45868;DHT22;31582;45.490;7.860;2023-05-10T13:38:13;22.50;63.80
45868;DHT22;31582;45.490;7.860;2023-05-10T13:40:40;22.60;63.00
45868;DHT22;31582;45.490;7.860;2023-05-10T13:43:07;22.60;64.20
45868;DHT22;31582;45.490;7.860;2023-05-10T13:45:34;22.60;62.30
45868;DHT22;31582;45.490;7.860;2023-05-10T13:48:01;22.40;62.70
45868;DHT22;31582;45.490;7.860;2023-05-10T13:50:28;22.30;64.50
45868;DHT22;31582;45.490;7.860;2023-05-10T13:52:55;22.20;64.90
45868;DHT22;31582;45.490;7.860;2023-05-10T13:55:22;22.00;65.20
45868;DHT22;31582;45.490;7.860;2023-05-10T13:57:48;21.90;66.20
45868;DHT22;31582;45.490;7.860;2023-05-10T14:00:16;21.80;64.90
45868;DHT22;31582;45.490;7.860;2023-05-10T14:02:43;21.70;66.60
45868;DHT22;31582;45.490;7.860;2023-05-10T14:05:10;21.60;66.40
45868;DHT22;31582;45.490;7.860;2023-05-10T14:07:37;21.40;67.60
45868;DHT22;31582;45.490;7.860;2023-05-10T14:10:04;21.40;69.80
45868;DHT22;31582;45.490;7.860;2023-05-10T14:12:32;21.30;71.00
45868;DHT22;31582;45.490;7.860;2023-05-10T14:14:59;21.10;71.20
45868;DHT22;31582;45.490;7.860;2023-05-10T14:17:26;20.90;71.70
45868;DHT22;31582;45.490;7.860;2023-05-10T14:19:53;20.80;73.60
45868;DHT22;31582;45.490;7.860;2023-05-10T14:22:20;20.60;74.80
45868;DHT22;31582;45.490;7.860;2023-05-10T14:24:47;20.40;76.40
45868;DHT22;31582;45.490;7.860;2023-05-10T14:27:14;20.20;78.30
45868;DHT22;31582;45.490;7.860;2023-05-10T14:29:41;20.10;78.50
45868;DHT22;31582;45.490;7.860;2023-05-10T14:32:08;20.00;80.80
45868;DHT22;31582;45.490;7.860;2023-05-10T14:34:35;20.00;82.50
45868;DHT22;31582;45.490;7.860;2023-05-10T14:37:02;20.00;82.10
45868;DHT22;31582;45.490;7.860;2023-05-10T14:39:29;20.00;82.90
45868;DHT22;31582;45.490;7.860;2023-05-10T14:41:56;20.10;83.10
45868;DHT22;31582;45.490;7.860;2023-05-10T14:44:23;20.00;82.90
45868;DHT22;31582;45.490;7.860;2023-05-10T14:46:51;19.90;81.80
45868;DHT22;31582;45.490;7.860;2023-05-10T14:49:18;19.90;82.20
45868;DHT22;31582;45.490;7.860;2023-05-10T14:51:44;19.80;83.10
45868;DHT22;31582;45.490;7.860;2023-05-10T14:54:12;19.80;83.60
45868;DHT22;31582;45.490;7.860;2023-05-10T14:56:39;19.80;83.10
45868;DHT22;31582;45.490;7.860;2023-05-10T14:59:08;19.80;83.00
45868;DHT22;31582;45.490;7.860;2023-05-10T15:01:35;19.70;82.40
45868;DHT22;31582;45.490;7.860;2023-05-10T15:04:04;19.70;83.10
45868;DHT22;31582;45.490;7.860;2023-05-10T15:06:33;19.60;83.90
45868;DHT22;31582;45.490;7.860;2023-05-10T15:09:02;19.60;84.60
45868;DHT22;31582;45.490;7.860;2023-05-10T15:11:29;19.60;85.10
45868;DHT22;31582;45.490;7.860;2023-05-10T15:13:56;19.60;86.50
45868;DHT22;31582;45.490;7.860;2023-05-10T15:16:23;19.50;87.20
45868;DHT22;31582;45.490;7.860;2023-05-10T15:18:53;19.40;84.30
45868;DHT22;31582;45.490;7.860;2023-05-10T15:21:20;19.30;87.50
45868;DHT22;31582;45.490;7.860;2023-05-10T15:23:48;19.20;88.90
45868;DHT22;31582;45.490;7.860;2023-05-10T15:26:15;19.10;91.20
45868;DHT22;31582;45.490;7.860;2023-05-10T15:28:42;19.10;91.00
45868;DHT22;31582;45.490;7.860;2023-05-10T15:31:09;19.10;90.90
45868;DHT22;31582;45.490;7.860;2023-05-10T15:33:37;19.10;91.30
45868;DHT22;31582;45.490;7.860;2023-05-10T15:36:05;19.00;89.50
45868;DHT22;31582;45.490;7.860;2023-05-10T15:38:32;18.90;90.40
45868;DHT22;31582;45.490;7.860;2023-05-10T15:40:59;18.90;91.50
45868;DHT22;31582;45.490;7.860;2023-05-10T15:43:26;18.90;91.10
45868;DHT22;31582;45.490;7.860;2023-05-10T15:45:53;18.80;90.70
45868;DHT22;31582;45.490;7.860;2023-05-10T15:48:20;18.80;90.60
45868;DHT22;31582;45.490;7.860;2023-05-10T15:50:47;18.70;91.00
45868;DHT22;31582;45.490;7.860;2023-05-10T15:53:14;18.60;91.60
45868;DHT22;31582;45.490;7.860;2023-05-10T15:55:40;18.60;92.20
45868;DHT22;31582;45.490;7.860;2023-05-10T15:58:07;18.60;92.50
45868;DHT22;31582;45.490;7.860;2023-05-10T16:00:34;18.60;92.30
45868;DHT22;31582;45.490;7.860;2023-05-10T16:03:01;18.50;92.60
45868;DHT22;31582;45.490;7.860;2023-05-10T16:05:28;18.50;93.30
45868;DHT22;31582;45.490;7.860;2023-05-10T16:07:59;18.50;93.80
45868;DHT22;31582;45.490;7.860;2023-05-10T16:10:26;18.50;94.20
45868;DHT22;31582;45.490;7.860;2023-05-10T16:12:53;18.60;94.30
45868;DHT22;31582;45.490;7.860;2023-05-10T16:15:20;18.60;94.70
45868;DHT22;31582;45.490;7.860;2023-05-10T16:17:48;18.70;94.70
45868;DHT22;31582;45.490;7.860;2023-05-10T16:20:15;18.70;94.60